Disclaimer

Please do not use the information listed here in-flight or in-navigation, as they are not provided to us by the airports but are provided by volunteers, so they might be outdated.

Search


Regions


Airport information page

No radio frequency information is available.

Airport informations:
Latitude: 45° 59' 27.34" N
Longitude: 018° 14' 27.54" E
Elevation: 1000 feet - 305 meters
Operating hours: Remarks
Operating agency: Private
Timezone: UTC+1(+2DT) - Last Sunday in March to last Sunday in October
Fuel: N/A

Runway information:
16/34 - 4922 x 98 feet< - >1500 x 30 meters

Recent METARs:
LHPP 181645Z 04002KT 9999 SCT030 OVC083 02/M01 Q1020
LHPP 181645Z 04002KT 9999 SCT030 OVC083 02/M01 Q1020
LHPP 181645Z 04002KT 9999 SCT030 OVC083 02/M01 Q1020

Airport on the map: